createdAt,value
2023-05-23T00:01:40.967Z,93.00
2023-05-23T00:04:08.996Z,93.10
2023-05-23T00:06:36.293Z,92.90
2023-05-23T00:09:03.319Z,93.10
2023-05-23T00:11:31.195Z,92.90
2023-05-23T00:14:01.072Z,93.00
2023-05-23T00:16:28.279Z,92.90
2023-05-23T00:18:57.713Z,92.90
2023-05-23T00:21:24.813Z,92.90
2023-05-23T00:23:51.761Z,93.00
2023-05-23T00:26:18.573Z,93.10
2023-05-23T00:28:46.627Z,93.20
2023-05-23T00:31:13.580Z,93.10
2023-05-23T00:33:40.435Z,93.30
2023-05-23T00:36:07.545Z,93.10
2023-05-23T00:38:34.429Z,93.00
2023-05-23T00:41:02.411Z,93.30
2023-05-23T00:43:29.577Z,93.00
2023-05-23T00:45:56.698Z,93.30
2023-05-23T00:48:27.140Z,93.00
2023-05-23T00:50:55.481Z,93.10
2023-05-23T00:53:22.768Z,93.10
2023-05-23T00:55:50.074Z,93.10
2023-05-23T00:58:17.791Z,93.00
2023-05-23T01:00:49.849Z,93.00
2023-05-23T01:03:18.986Z,92.70
2023-05-23T01:05:46.100Z,92.70
2023-05-23T01:08:13.020Z,92.70
2023-05-23T01:10:40.078Z,92.70
2023-05-23T01:13:34.301Z,92.70
2023-05-23T01:16:26.226Z,92.60
2023-05-23T01:19:15.243Z,92.70
2023-05-23T01:21:44.729Z,92.80
2023-05-23T01:24:39.604Z,92.60
2023-05-23T01:27:20.450Z,92.70
2023-05-23T01:29:48.530Z,92.90
2023-05-23T01:32:17.107Z,92.60
2023-05-23T01:34:44.550Z,92.50
2023-05-23T01:37:14.700Z,92.60
2023-05-23T01:39:42.522Z,92.80
2023-05-23T01:42:09.741Z,92.70
2023-05-23T01:44:38.240Z,93.10
2023-05-23T01:47:08.317Z,92.90
2023-05-23T01:49:36.749Z,92.90
2023-05-23T01:52:04.898Z,93.30
2023-05-23T01:54:35.328Z,93.40
2023-05-23T01:57:03.107Z,93.40
2023-05-23T01:59:30.084Z,93.40
2023-05-23T02:01:57.785Z,93.50
2023-05-23T02:04:24.685Z,93.30
2023-05-23T02:06:51.716Z,93.50
2023-05-23T02:09:18.566Z,93.50
2023-05-23T02:11:45.636Z,93.70
2023-05-23T02:14:13.069Z,93.70
2023-05-23T02:16:40.107Z,93.70
2023-05-23T02:19:07.034Z,93.80
2023-05-23T02:21:35.450Z,93.60
2023-05-23T02:24:03.632Z,93.90
2023-05-23T02:26:30.712Z,94.00
2023-05-23T02:28:57.609Z,94.10
2023-05-23T02:31:25.118Z,93.90
2023-05-23T02:33:52.046Z,94.30
2023-05-23T02:36:18.995Z,94.40
2023-05-23T02:38:45.952Z,94.40
2023-05-23T02:41:12.863Z,94.70
2023-05-23T02:43:39.843Z,95.00
2023-05-23T02:46:06.983Z,94.80
2023-05-23T02:48:33.864Z,95.30
2023-05-23T02:51:00.806Z,95.00
2023-05-23T02:53:27.698Z,94.80
2023-05-23T02:55:54.869Z,95.50
2023-05-23T02:58:21.766Z,95.10
2023-05-23T03:00:48.707Z,95.10
2023-05-23T03:03:17.058Z,95.00
2023-05-23T03:05:44.297Z,95.20
2023-05-23T03:08:11.304Z,95.40
2023-05-23T03:10:38.225Z,95.60
2023-05-23T03:13:05.504Z,95.60
2023-05-23T03:15:32.495Z,95.80
2023-05-23T03:17:59.552Z,95.80
2023-05-23T03:20:26.553Z,95.80
2023-05-23T03:22:54.966Z,95.60
2023-05-23T03:25:23.495Z,95.80
2023-05-23T03:27:50.583Z,95.80
2023-05-23T03:30:17.694Z,95.90
2023-05-23T03:32:44.656Z,95.80
2023-05-23T03:35:11.730Z,95.70
2023-05-23T03:37:39.507Z,95.40
2023-05-23T03:40:07.477Z,95.50
2023-05-23T03:42:35.211Z,95.40
2023-05-23T03:45:02.199Z,95.60
2023-05-23T03:47:29.123Z,95.50
2023-05-23T03:49:58.560Z,95.50
2023-05-23T03:52:26.100Z,95.60
2023-05-23T03:54:53.060Z,95.10
2023-05-23T03:57:20.219Z,95.30
2023-05-23T03:59:47.471Z,95.40
2023-05-23T04:02:15.064Z,95.40
2023-05-23T04:04:42.245Z,95.60
2023-05-23T04:07:10.171Z,95.70
2023-05-23T04:09:38.820Z,95.70
2023-05-23T04:12:09.749Z,95.60
2023-05-23T04:14:37.500Z,94.70
2023-05-23T04:17:05.905Z,94.50
2023-05-23T04:19:33.638Z,94.10
2023-05-23T04:22:00.824Z,93.60
2023-05-23T04:24:27.937Z,94.20
2023-05-23T04:26:56.346Z,93.60
2023-05-23T04:29:26.214Z,93.90
2023-05-23T04:31:55.058Z,94.50
2023-05-23T04:34:22.518Z,94.00
2023-05-23T04:36:49.625Z,94.40
2023-05-23T04:39:16.766Z,94.50
2023-05-23T04:41:59.679Z,94.30
2023-05-23T04:44:45.164Z,95.20
2023-05-23T04:47:20.716Z,95.30
2023-05-23T04:50:03.071Z,95.40
2023-05-23T04:52:33.313Z,95.40
2023-05-23T04:55:01.325Z,95.40
2023-05-23T04:57:28.704Z,95.80
2023-05-23T04:59:57.113Z,95.40
2023-05-23T05:02:24.247Z,95.50
2023-05-23T05:04:51.389Z,94.70
2023-05-23T05:07:18.362Z,94.70
2023-05-23T05:09:45.542Z,94.50
2023-05-23T05:12:12.719Z,94.70
2023-05-23T05:14:40.515Z,94.40
2023-05-23T05:17:08.044Z,94.60
2023-05-23T05:19:55.250Z,94.80
2023-05-23T05:22:23.310Z,94.30
2023-05-23T05:24:50.141Z,94.10
2023-05-23T05:27:17.418Z,93.70
2023-05-23T05:29:44.829Z,93.20
2023-05-23T05:32:11.680Z,93.90
2023-05-23T05:34:38.584Z,93.30
2023-05-23T05:37:06.570Z,94.00
2023-05-23T05:39:33.514Z,93.90
2023-05-23T05:42:03.605Z,94.20
2023-05-23T05:44:30.577Z,93.40
2023-05-23T05:46:58.115Z,93.10
2023-05-23T05:49:25.283Z,94.30
2023-05-23T05:51:52.735Z,93.80
2023-05-23T05:54:19.580Z,92.30
2023-05-23T05:56:48.000Z,92.80
2023-05-23T05:59:15.612Z,93.00
2023-05-23T06:01:42.551Z,93.10
2023-05-23T06:04:09.544Z,92.80
2023-05-23T06:06:36.737Z,93.00
2023-05-23T06:09:03.811Z,92.40
2023-05-23T06:11:30.946Z,92.20
2023-05-23T06:13:58.022Z,93.10
2023-05-23T06:16:25.070Z,93.00
2023-05-23T06:18:52.110Z,92.90
2023-05-23T06:21:19.083Z,92.40
2023-05-23T06:23:49.489Z,92.00
2023-05-23T06:26:16.486Z,92.20
2023-05-23T06:28:43.412Z,92.00
2023-05-23T06:31:10.563Z,91.50
2023-05-23T06:33:37.544Z,91.70
2023-05-23T06:36:04.540Z,91.00
2023-05-23T06:38:35.483Z,90.90
2023-05-23T06:41:03.848Z,90.90
2023-05-23T06:43:31.385Z,90.70
2023-05-23T06:46:13.083Z,90.10
2023-05-23T06:48:40.429Z,90.40
2023-05-23T06:51:07.338Z,90.20
2023-05-23T06:53:34.398Z,90.40
2023-05-23T06:56:01.689Z,88.90
2023-05-23T06:58:30.529Z,89.30
2023-05-23T07:00:58.923Z,89.60
2023-05-23T07:03:32.749Z,89.10
2023-05-23T07:06:04.514Z,89.80
2023-05-23T07:08:31.891Z,90.00
2023-05-23T07:11:00.427Z,89.20
2023-05-23T07:13:39.443Z,87.50
2023-05-23T07:16:06.702Z,86.80
2023-05-23T07:18:38.671Z,86.70
2023-05-23T07:21:06.128Z,86.90
2023-05-23T07:23:34.526Z,86.40
2023-05-23T07:26:03.279Z,86.00
2023-05-23T07:28:42.789Z,84.80
2023-05-23T07:31:10.048Z,86.40
2023-05-23T07:33:38.034Z,87.60
2023-05-23T07:36:06.238Z,87.90
2023-05-23T07:38:33.367Z,87.10
2023-05-23T07:41:10.940Z,88.50
2023-05-23T07:43:39.171Z,87.30
2023-05-23T07:46:06.564Z,87.00
2023-05-23T07:48:33.713Z,84.70
2023-05-23T07:51:01.135Z,85.70
2023-05-23T07:53:28.923Z,85.20
2023-05-23T07:55:56.783Z,84.70
2023-05-23T07:58:26.803Z,84.70
2023-05-23T08:00:53.839Z,83.90
2023-05-23T08:03:46.929Z,83.40
2023-05-23T08:06:20.692Z,83.30
2023-05-23T08:08:47.809Z,82.60
2023-05-23T08:11:15.612Z,82.80
2023-05-23T08:13:46.551Z,81.00
2023-05-23T08:16:32.004Z,81.00
2023-05-23T08:19:00.035Z,80.30
2023-05-23T08:21:28.309Z,80.10
2023-05-23T08:23:55.149Z,79.60
2023-05-23T08:26:23.042Z,78.40
2023-05-23T08:28:51.283Z,78.20
2023-05-23T08:31:18.807Z,79.80
2023-05-23T08:33:46.004Z,78.50
2023-05-23T08:36:13.390Z,79.60
2023-05-23T08:38:41.219Z,79.60
2023-05-23T08:41:24.922Z,80.80
2023-05-23T08:43:58.877Z,80.40
2023-05-23T08:46:31.277Z,80.70
2023-05-23T08:49:00.420Z,76.70
2023-05-23T08:51:29.601Z,75.30
2023-05-23T08:54:00.439Z,72.40
2023-05-23T08:56:29.272Z,70.90
2023-05-23T08:58:58.407Z,73.20
2023-05-23T09:01:27.822Z,74.00
2023-05-23T09:04:00.427Z,75.20
2023-05-23T09:06:37.132Z,76.80
2023-05-23T09:09:05.071Z,78.60
2023-05-23T09:11:36.023Z,77.10
2023-05-23T09:14:05.318Z,78.80
2023-05-23T09:16:36.888Z,80.80
2023-05-23T09:19:14.691Z,80.20
2023-05-23T09:21:46.898Z,79.20
2023-05-23T09:24:34.995Z,78.70
2023-05-23T09:27:03.253Z,78.80
2023-05-23T09:29:31.007Z,79.00
2023-05-23T09:32:14.519Z,79.90
2023-05-23T09:34:54.591Z,79.10
2023-05-23T09:37:31.278Z,78.40
2023-05-23T09:39:59.772Z,77.90
2023-05-23T09:42:33.024Z,78.50
2023-05-23T09:45:03.142Z,78.30
2023-05-23T09:47:31.248Z,78.40
2023-05-23T09:49:58.242Z,78.40
2023-05-23T09:52:26.115Z,79.00
2023-05-23T09:54:53.835Z,77.50
2023-05-23T09:57:23.527Z,78.40
2023-05-23T09:59:57.090Z,77.30
2023-05-23T10:02:54.572Z,77.60
2023-05-23T10:05:33.409Z,77.80
2023-05-23T10:08:03.245Z,78.30
2023-05-23T10:10:33.134Z,78.00
2023-05-23T10:13:06.166Z,78.40
2023-05-23T10:15:39.582Z,79.60
2023-05-23T10:18:12.694Z,78.60
2023-05-23T10:20:42.843Z,77.80
2023-05-23T10:23:10.368Z,77.10
2023-05-23T10:25:37.936Z,77.70
2023-05-23T10:28:05.560Z,77.60
2023-05-23T10:30:33.387Z,78.20
2023-05-23T10:33:02.077Z,77.80
2023-05-23T10:36:05.079Z,76.70
2023-05-23T10:38:39.948Z,76.10
2023-05-23T10:41:11.355Z,76.80
2023-05-23T10:43:51.447Z,77.60
2023-05-23T10:46:22.215Z,77.20
2023-05-23T10:48:57.251Z,76.70
2023-05-23T10:51:24.987Z,75.60
2023-05-23T10:53:54.699Z,76.00
2023-05-23T10:56:23.844Z,75.80
2023-05-23T10:58:55.014Z,75.70
2023-05-23T11:01:22.808Z,75.10
2023-05-23T11:04:18.446Z,74.80
2023-05-23T11:06:45.056Z,72.10
2023-05-23T11:09:13.141Z,72.00
2023-05-23T11:12:10.042Z,74.70
2023-05-23T11:14:38.009Z,73.60
2023-05-23T11:17:13.925Z,74.30
2023-05-23T11:19:55.222Z,73.80
2023-05-23T11:22:27.316Z,73.60
2023-05-23T11:24:55.223Z,72.60
2023-05-23T11:27:39.924Z,74.10
2023-05-23T11:30:19.437Z,73.10
2023-05-23T11:32:54.860Z,74.70
2023-05-23T11:35:22.265Z,74.40
2023-05-23T11:37:49.537Z,73.40
2023-05-23T11:40:39.537Z,73.70
2023-05-23T11:43:11.503Z,70.10
2023-05-23T11:45:39.264Z,67.30
2023-05-23T11:48:11.652Z,67.30
2023-05-23T11:50:47.311Z,69.20
2023-05-23T11:53:17.612Z,70.70
2023-05-23T11:55:58.387Z,70.00
2023-05-23T11:58:36.448Z,71.00
2023-05-23T12:01:06.642Z,69.70
2023-05-23T12:03:35.355Z,70.10
2023-05-23T12:06:02.731Z,68.60
2023-05-23T12:08:29.704Z,71.20
2023-05-23T12:11:01.289Z,71.50
2023-05-23T12:13:31.535Z,71.20
2023-05-23T12:16:02.009Z,73.60
2023-05-23T12:18:31.713Z,73.50
2023-05-23T12:21:03.679Z,72.50
2023-05-23T12:23:33.098Z,74.10
2023-05-23T12:26:04.960Z,74.40
2023-05-23T12:28:39.513Z,71.10
2023-05-23T12:31:27.388Z,73.40
2023-05-23T12:33:54.410Z,73.20
2023-05-23T12:36:32.224Z,72.30
2023-05-23T12:39:06.128Z,73.00
2023-05-23T12:41:33.739Z,72.60
2023-05-23T12:44:00.917Z,73.20
2023-05-23T12:46:28.187Z,73.00
2023-05-23T12:48:55.422Z,75.60
2023-05-23T12:51:22.355Z,73.80
2023-05-23T12:53:49.278Z,75.20
2023-05-23T12:56:16.229Z,76.30
2023-05-23T12:58:43.785Z,77.20
2023-05-23T13:01:11.456Z,76.90
2023-05-23T13:03:38.489Z,76.80
2023-05-23T13:06:06.746Z,79.00
2023-05-23T13:08:33.702Z,78.70
2023-05-23T13:11:00.839Z,79.10
2023-05-23T13:13:27.774Z,79.20
2023-05-23T13:15:54.902Z,79.80
2023-05-23T13:18:21.951Z,79.10
2023-05-23T13:20:48.833Z,79.00
2023-05-23T13:23:15.783Z,80.00
2023-05-23T13:25:43.122Z,80.60
2023-05-23T13:28:10.658Z,80.80
2023-05-23T13:30:37.573Z,80.10
2023-05-23T13:33:05.124Z,80.00
2023-05-23T13:35:32.067Z,81.20
2023-05-23T13:37:59.001Z,80.50
2023-05-23T13:40:25.983Z,79.80
2023-05-23T13:42:53.135Z,79.90
2023-05-23T13:45:22.590Z,80.20
2023-05-23T13:47:49.832Z,81.10
2023-05-23T13:50:17.259Z,81.40
2023-05-23T13:52:47.224Z,81.20
2023-05-23T13:55:16.493Z,81.00
2023-05-23T13:57:43.371Z,80.30
2023-05-23T14:00:11.546Z,80.30
2023-05-23T14:02:38.431Z,80.10
2023-05-23T14:05:07.298Z,80.90
2023-05-23T14:07:34.229Z,81.70
2023-05-23T14:10:01.232Z,81.30
2023-05-23T14:12:28.222Z,80.80
2023-05-23T14:14:55.065Z,79.70
2023-05-23T14:17:22.045Z,78.90
2023-05-23T14:19:48.997Z,80.50
2023-05-23T14:22:16.240Z,82.10
2023-05-23T14:24:43.189Z,83.20
2023-05-23T14:27:11.325Z,84.70
2023-05-23T14:29:38.930Z,84.10
2023-05-23T14:32:06.511Z,84.30
2023-05-23T14:34:33.541Z,84.60
2023-05-23T14:37:01.328Z,83.80
2023-05-23T14:39:29.119Z,84.20
2023-05-23T14:41:56.228Z,85.20
2023-05-23T14:44:23.368Z,86.20
2023-05-23T14:46:50.459Z,87.30
2023-05-23T14:49:17.935Z,86.00
2023-05-23T14:51:50.437Z,87.10
2023-05-23T14:54:19.099Z,87.50
2023-05-23T14:56:46.171Z,86.90
2023-05-23T14:59:13.235Z,87.60
2023-05-23T15:01:40.925Z,87.90
2023-05-23T15:04:09.568Z,89.50
2023-05-23T15:06:38.395Z,90.40
2023-05-23T15:09:05.693Z,91.20
2023-05-23T15:11:34.920Z,91.40
2023-05-23T15:14:02.068Z,91.30
2023-05-23T15:16:32.710Z,91.30
2023-05-23T15:19:00.238Z,91.40
2023-05-23T15:21:27.449Z,91.00
2023-05-23T15:23:54.797Z,90.50
2023-05-23T15:26:22.160Z,90.30
2023-05-23T15:28:49.063Z,90.70
2023-05-23T15:31:15.974Z,91.10
2023-05-23T15:33:43.234Z,91.00
2023-05-23T15:36:10.286Z,91.00
2023-05-23T15:38:37.110Z,91.70
2023-05-23T15:41:04.879Z,92.10
2023-05-23T15:43:32.702Z,92.40
2023-05-23T15:45:59.676Z,92.90
2023-05-23T15:48:26.620Z,92.70
2023-05-23T15:50:53.577Z,93.10
2023-05-23T15:53:20.891Z,93.10
2023-05-23T15:55:47.866Z,93.20
2023-05-23T15:58:15.145Z,93.50
2023-05-23T16:00:42.339Z,93.60
2023-05-23T16:03:09.496Z,93.60
2023-05-23T16:05:36.464Z,93.80
2023-05-23T16:08:03.421Z,94.10
2023-05-23T16:10:30.285Z,94.80
2023-05-23T16:12:57.150Z,95.20
2023-05-23T16:15:24.049Z,95.50
2023-05-23T16:17:50.969Z,95.60
2023-05-23T16:20:17.884Z,96.00
2023-05-23T16:22:45.906Z,96.20
2023-05-23T16:25:12.911Z,96.40
2023-05-23T16:27:40.622Z,96.70
2023-05-23T16:30:08.133Z,96.70
2023-05-23T16:32:35.244Z,96.70
2023-05-23T16:35:02.246Z,96.90
2023-05-23T16:37:29.111Z,97.20
2023-05-23T16:39:56.061Z,97.50
2023-05-23T16:42:22.882Z,97.10
2023-05-23T16:44:49.798Z,96.90
2023-05-23T16:47:17.142Z,96.30
2023-05-23T16:49:44.143Z,96.20
2023-05-23T16:52:11.350Z,96.30
2023-05-23T16:54:38.206Z,96.90
2023-05-23T16:57:05.679Z,96.50
2023-05-23T16:59:32.700Z,96.70
2023-05-23T17:01:59.739Z,96.60
2023-05-23T17:04:26.654Z,96.30
2023-05-23T17:06:53.674Z,95.50
2023-05-23T17:09:22.202Z,95.50
2023-05-23T17:11:50.148Z,95.00
2023-05-23T17:14:17.584Z,94.50
2023-05-23T17:16:44.610Z,94.40
2023-05-23T17:19:11.681Z,94.40
2023-05-23T17:21:38.684Z,94.40
2023-05-23T17:24:06.004Z,94.90
2023-05-23T17:26:32.898Z,94.90
2023-05-23T17:28:59.752Z,95.30
2023-05-23T17:31:29.000Z,95.00
2023-05-23T17:33:57.572Z,94.90
2023-05-23T17:36:24.538Z,95.30
2023-05-23T17:38:53.790Z,95.10
2023-05-23T17:41:23.190Z,95.40
2023-05-23T17:43:50.719Z,95.20
2023-05-23T17:46:20.168Z,94.90
2023-05-23T17:48:48.221Z,94.70
2023-05-23T17:51:15.824Z,94.60
2023-05-23T17:53:42.955Z,94.90
2023-05-23T17:56:10.600Z,95.00
2023-05-23T17:58:38.829Z,95.40
2023-05-23T18:01:06.936Z,95.50
2023-05-23T18:03:33.983Z,95.40
2023-05-23T18:06:00.887Z,95.30
2023-05-23T18:08:43.629Z,95.00
2023-05-23T18:11:10.509Z,94.80
2023-05-23T18:13:37.334Z,94.10
2023-05-23T18:16:04.315Z,94.30
2023-05-23T18:18:31.342Z,94.20
2023-05-23T18:20:58.300Z,94.00
2023-05-23T18:23:25.150Z,94.10
2023-05-23T18:25:52.598Z,94.20
2023-05-23T18:28:19.505Z,94.10
2023-05-23T18:30:46.381Z,93.80
2023-05-23T18:33:13.432Z,94.00
2023-05-23T18:35:40.630Z,94.60
2023-05-23T18:38:07.867Z,95.10
2023-05-23T18:40:34.707Z,95.40
2023-05-23T18:43:01.534Z,96.10
2023-05-23T18:45:28.616Z,96.20
2023-05-23T18:47:56.021Z,96.90
2023-05-23T18:50:23.707Z,97.10
2023-05-23T18:52:50.794Z,97.60
2023-05-23T18:55:17.707Z,98.00
2023-05-23T18:57:44.597Z,98.30
2023-05-23T19:00:12.097Z,98.50
2023-05-23T19:02:44.115Z,98.70
2023-05-23T19:05:12.628Z,99.10
2023-05-23T19:07:39.829Z,99.40
2023-05-23T19:10:07.131Z,99.80
2023-05-23T19:12:34.066Z,99.90
2023-05-23T19:15:01.232Z,99.90
2023-05-23T19:17:28.170Z,99.90
2023-05-23T19:19:55.213Z,99.90
2023-05-23T19:22:22.080Z,99.90
2023-05-23T19:24:49.271Z,99.90
2023-05-23T19:27:16.706Z,99.90
2023-05-23T19:29:44.390Z,99.90
2023-05-23T19:32:11.335Z,99.90
2023-05-23T19:34:38.296Z,99.90
2023-05-23T19:37:05.997Z,99.90
2023-05-23T19:39:32.808Z,99.90
2023-05-23T19:41:59.892Z,99.90
2023-05-23T19:44:27.018Z,99.90
2023-05-23T19:46:53.937Z,99.90
2023-05-23T19:49:20.996Z,99.90
2023-05-23T19:51:47.943Z,99.90
2023-05-23T19:54:15.439Z,99.90
2023-05-23T19:56:42.478Z,99.90
2023-05-23T19:59:09.502Z,99.90
2023-05-23T20:01:36.494Z,99.90
2023-05-23T20:04:03.643Z,99.90
2023-05-23T20:06:30.520Z,99.90
2023-05-23T20:08:57.437Z,99.90
2023-05-23T20:11:25.094Z,99.90
2023-05-23T20:13:51.969Z,99.90
2023-05-23T20:16:18.936Z,99.90
2023-05-23T20:18:45.954Z,99.90
2023-05-23T20:21:12.855Z,99.90
2023-05-23T20:23:43.359Z,99.90
2023-05-23T20:26:10.336Z,99.90
2023-05-23T20:28:37.788Z,99.90
2023-05-23T20:31:04.720Z,99.90
2023-05-23T20:33:31.599Z,99.90
2023-05-23T20:35:59.260Z,99.90
2023-05-23T20:38:26.476Z,99.90
2023-05-23T20:40:53.515Z,99.90
2023-05-23T20:43:22.269Z,99.90
2023-05-23T20:45:49.259Z,99.90
2023-05-23T20:48:16.326Z,99.90
2023-05-23T20:50:43.973Z,99.90
2023-05-23T20:53:11.316Z,99.90
2023-05-23T20:55:38.157Z,99.90
2023-05-23T20:58:05.219Z,99.90
2023-05-23T21:00:32.131Z,99.90
2023-05-23T21:02:59.137Z,99.90
2023-05-23T21:05:26.417Z,99.90
2023-05-23T21:07:53.230Z,99.90
2023-05-23T21:10:20.059Z,99.90
2023-05-23T21:12:50.228Z,99.90
2023-05-23T21:15:18.044Z,99.90
2023-05-23T21:17:45.354Z,99.90
2023-05-23T21:20:13.283Z,99.90
2023-05-23T21:22:40.649Z,99.90
2023-05-23T21:25:07.783Z,99.90
2023-05-23T21:27:34.721Z,99.90
2023-05-23T21:30:01.706Z,99.90
2023-05-23T21:32:29.175Z,99.90
2023-05-23T21:34:56.377Z,99.90
2023-05-23T21:37:23.270Z,99.90
2023-05-23T21:39:51.987Z,99.90
2023-05-23T21:42:20.561Z,99.90
2023-05-23T21:44:47.435Z,99.90
2023-05-23T21:47:14.326Z,99.90
2023-05-23T21:49:41.245Z,99.90
2023-05-23T21:52:08.173Z,99.90
2023-05-23T21:54:35.058Z,99.90
2023-05-23T21:57:02.003Z,99.90
2023-05-23T21:59:28.964Z,99.90
2023-05-23T22:01:56.101Z,99.90
2023-05-23T22:04:23.138Z,99.90
2023-05-23T22:06:50.045Z,99.90
2023-05-23T22:09:16.990Z,99.90
2023-05-23T22:11:44.356Z,99.90
2023-05-23T22:14:11.290Z,99.90
2023-05-23T22:16:39.395Z,99.90
2023-05-23T22:19:06.953Z,99.90
2023-05-23T22:21:33.831Z,99.90
2023-05-23T22:24:00.806Z,99.90
2023-05-23T22:26:28.118Z,99.90
2023-05-23T22:28:55.302Z,99.90
2023-05-23T22:31:23.802Z,99.90
2023-05-23T22:33:51.295Z,99.90
2023-05-23T22:36:18.498Z,99.90
2023-05-23T22:38:45.779Z,99.90
2023-05-23T22:41:12.681Z,99.90
2023-05-23T22:43:39.934Z,99.90
2023-05-23T22:46:07.089Z,99.90
2023-05-23T22:48:34.237Z,99.90
2023-05-23T22:51:02.406Z,99.90
2023-05-23T22:53:30.327Z,99.90
2023-05-23T22:55:57.572Z,99.90
2023-05-23T22:58:24.457Z,99.90
2023-05-23T23:00:51.467Z,99.90
2023-05-23T23:03:18.620Z,99.90
2023-05-23T23:05:46.364Z,99.90
2023-05-23T23:08:13.413Z,99.90
2023-05-23T23:10:41.767Z,99.90
2023-05-23T23:13:09.002Z,99.90
2023-05-23T23:15:37.029Z,99.90
2023-05-23T23:18:05.932Z,99.90
2023-05-23T23:20:33.376Z,99.90
2023-05-23T23:23:00.413Z,99.90
2023-05-23T23:25:27.364Z,99.90
2023-05-23T23:27:54.244Z,99.90
2023-05-23T23:30:21.419Z,99.90
2023-05-23T23:32:48.612Z,99.90
2023-05-23T23:35:15.768Z,99.90
2023-05-23T23:37:42.609Z,99.90
2023-05-23T23:40:10.079Z,99.90
2023-05-23T23:42:36.978Z,99.90
2023-05-23T23:45:04.801Z,99.90
2023-05-23T23:47:32.628Z,99.90
2023-05-23T23:49:59.556Z,99.90
2023-05-23T23:52:28.060Z,99.90
2023-05-23T23:54:55.066Z,99.90
2023-05-23T23:57:22.015Z,99.90
2023-05-23T23:59:49.050Z,99.90
